createdAt,value
2023-04-02T00:00:20.022Z,100061.86
2023-04-02T00:03:12.737Z,100065.22
2023-04-02T00:05:56.734Z,100059.66
2023-04-02T00:08:39.076Z,100063.32
2023-04-02T00:11:33.329Z,100057.55
2023-04-02T00:14:17.978Z,100058.12
2023-04-02T00:16:54.837Z,100066.64
2023-04-02T00:19:45.075Z,100059.91
2023-04-02T00:22:34.517Z,100063.94
2023-04-02T00:25:16.133Z,100059.08
2023-04-02T00:27:46.818Z,100064.35
2023-04-02T00:30:17.789Z,100062.63
2023-04-02T00:32:48.739Z,100067.90
2023-04-02T00:35:28.529Z,100073.83
2023-04-02T00:37:59.372Z,100072.27
2023-04-02T00:40:35.987Z,100073.84
2023-04-02T00:43:33.353Z,100073.70
2023-04-02T00:46:16.623Z,100071.08
2023-04-02T00:49:01.707Z,100070.15
2023-04-02T00:51:41.922Z,100069.67
2023-04-02T00:54:17.023Z,100069.58
2023-04-02T00:56:56.139Z,100069.45
2023-04-02T00:59:35.774Z,100072.64
2023-04-02T01:02:15.320Z,100074.27
2023-04-02T01:05:16.502Z,100069.73
2023-04-02T01:08:35.541Z,100066.30
2023-04-02T01:11:28.659Z,100064.75
2023-04-02T01:14:45.621Z,100064.64
2023-04-02T01:17:43.918Z,100061.92
2023-04-02T01:21:22.002Z,100067.16
2023-04-02T01:24:07.768Z,100073.81
2023-04-02T01:26:51.837Z,100076.81
2023-04-02T01:29:37.514Z,100076.67
2023-04-02T01:32:16.568Z,100077.10
2023-04-02T01:34:49.893Z,100075.15
2023-04-02T01:37:57.485Z,100073.63
2023-04-02T01:41:04.108Z,100077.07
2023-04-02T01:43:41.949Z,100083.05
2023-04-02T01:46:33.191Z,100091.83
2023-04-02T01:49:17.154Z,100091.16
2023-04-02T01:51:58.798Z,100093.02
2023-04-02T01:54:40.103Z,100096.70
2023-04-02T01:57:12.800Z,100094.30
2023-04-02T01:59:46.523Z,100098.67
2023-04-02T02:02:16.601Z,100097.17
2023-04-02T02:04:49.768Z,100096.89
2023-04-02T02:07:21.618Z,100098.49
2023-04-02T02:09:54.450Z,100094.77
2023-04-02T02:12:25.644Z,100092.23
2023-04-02T02:15:00.831Z,100095.88
2023-04-02T02:17:34.654Z,100094.05
2023-04-02T02:20:11.935Z,100094.29
2023-04-02T02:22:52.013Z,100089.91
2023-04-02T02:25:32.022Z,100097.03
2023-04-02T02:28:16.507Z,100098.80
2023-04-02T02:30:57.057Z,100096.02
2023-04-02T02:33:47.294Z,100101.52
2023-04-02T02:37:03.438Z,100103.95
2023-04-02T02:39:46.233Z,100101.48
2023-04-02T02:42:36.635Z,100103.73
2023-04-02T02:45:18.808Z,100104.26
2023-04-02T02:47:52.681Z,100106.23
2023-04-02T02:50:31.816Z,100101.30
2023-04-02T02:53:28.492Z,100102.40
2023-04-02T02:56:01.755Z,100103.83
2023-04-02T02:58:36.590Z,100112.98
2023-04-02T03:01:57.272Z,100115.52
2023-04-02T03:04:31.409Z,100120.80
2023-04-02T03:07:06.842Z,100121.45
2023-04-02T03:10:43.346Z,100121.27
2023-04-02T03:13:47.592Z,100122.48
2023-04-02T03:16:37.543Z,100126.77
2023-04-02T03:19:48.524Z,100122.45
2023-04-02T03:22:56.794Z,100122.91
2023-04-02T03:25:51.207Z,100124.52
2023-04-02T03:28:29.281Z,100126.50
2023-04-02T03:31:57.841Z,100131.11
2023-04-02T03:34:33.556Z,100139.56
2023-04-02T03:37:15.024Z,100141.77
2023-04-02T03:40:04.644Z,100138.63
2023-04-02T03:43:23.160Z,100139.64
2023-04-02T03:46:16.813Z,100146.89
2023-04-02T03:48:58.319Z,100151.65
2023-04-02T03:51:29.192Z,100150.83
2023-04-02T03:54:03.462Z,100156.98
2023-04-02T03:56:42.534Z,100157.52
2023-04-02T04:00:20.626Z,100159.16
2023-04-02T04:03:08.586Z,100159.13
2023-04-02T04:05:50.235Z,100162.40
2023-04-02T04:08:28.140Z,100170.23
2023-04-02T04:11:02.234Z,100171.45
2023-04-02T04:14:15.004Z,100174.02
2023-04-02T04:17:10.242Z,100183.04
2023-04-02T04:20:20.350Z,100182.80
2023-04-02T04:22:56.315Z,100186.75
2023-04-02T04:25:34.151Z,100184.46
2023-04-02T04:28:44.207Z,100190.16
2023-04-02T04:31:41.569Z,100192.70
2023-04-02T04:34:53.836Z,100193.54
2023-04-02T04:37:43.165Z,100197.11
2023-04-02T04:40:23.399Z,100200.61
2023-04-02T04:42:59.438Z,100198.74
2023-04-02T04:46:00.585Z,100201.48
2023-04-02T04:49:01.669Z,100197.56
2023-04-02T04:51:45.633Z,100195.98
2023-04-02T04:54:16.413Z,100192.22
2023-04-02T04:56:55.255Z,100195.39
2023-04-02T05:00:00.405Z,100195.05
2023-04-02T05:02:40.126Z,100196.39
2023-04-02T05:05:29.829Z,100199.24
2023-04-02T05:08:19.609Z,100204.79
2023-04-02T05:10:58.364Z,100209.36
2023-04-02T05:13:57.646Z,100218.29
2023-04-02T05:16:51.813Z,100219.55
2023-04-02T05:19:50.606Z,100219.27
2023-04-02T05:22:57.348Z,100220.04
2023-04-02T05:25:34.210Z,100221.75
2023-04-02T05:29:12.203Z,100227.51
2023-04-02T05:32:03.723Z,100225.89
2023-04-02T05:34:40.804Z,100231.75
2023-04-02T05:37:23.926Z,100235.26
2023-04-02T05:39:58.531Z,100244.30
2023-04-02T05:42:32.873Z,100250.02
2023-04-02T05:45:29.383Z,100252.40
2023-04-02T05:48:05.837Z,100257.54
2023-04-02T05:50:50.434Z,100262.08
2023-04-02T05:53:47.237Z,100264.27
2023-04-02T05:56:49.488Z,100266.73
2023-04-02T05:59:31.933Z,100279.46
2023-04-02T06:02:25.303Z,100279.08
2023-04-02T06:05:12.748Z,100283.03
2023-04-02T06:07:47.157Z,100290.55
2023-04-02T06:10:34.253Z,100295.96
2023-04-02T06:13:08.827Z,100299.89
2023-04-02T06:15:47.763Z,100301.19
2023-04-02T06:18:36.838Z,100304.48
2023-04-02T06:21:08.016Z,100305.16
2023-04-02T06:23:55.654Z,100303.91
2023-04-02T06:26:38.370Z,100309.70
2023-04-02T06:29:40.071Z,100314.56
2023-04-02T06:32:13.468Z,100314.94
2023-04-02T06:34:46.217Z,100317.00
2023-04-02T06:37:27.917Z,100318.89
2023-04-02T06:40:18.467Z,100318.10
2023-04-02T06:42:57.117Z,100321.02
2023-04-02T06:45:46.570Z,100330.16
2023-04-02T06:48:31.822Z,100333.12
2023-04-02T06:51:14.292Z,100338.19
2023-04-02T06:53:53.392Z,100346.45
2023-04-02T06:56:31.833Z,100353.29
2023-04-02T06:59:03.724Z,100355.30
2023-04-02T07:01:49.115Z,100357.94
2023-04-02T07:04:23.688Z,100362.40
2023-04-02T07:07:05.595Z,100367.21
2023-04-02T07:09:42.524Z,100369.52
2023-04-02T07:12:16.383Z,100374.20
2023-04-02T07:14:48.203Z,100375.71
2023-04-02T07:17:18.865Z,100377.73
2023-04-02T07:19:51.883Z,100378.83
2023-04-02T07:22:24.021Z,100378.80
2023-04-02T07:24:57.252Z,100382.64
2023-04-02T07:27:26.717Z,100385.71
2023-04-02T07:30:03.924Z,100390.48
2023-04-02T07:32:36.220Z,100397.03
2023-04-02T07:35:08.377Z,100398.68
2023-04-02T07:37:39.624Z,100401.27
2023-04-02T07:40:19.109Z,100402.80
2023-04-02T07:42:48.853Z,100397.91
2023-04-02T07:45:20.639Z,100399.50
2023-04-02T07:47:50.346Z,100402.27
2023-04-02T07:50:20.290Z,100405.82
2023-04-02T07:52:51.952Z,100406.85
2023-04-02T07:55:21.435Z,100411.17
2023-04-02T07:57:57.339Z,100411.54
2023-04-02T08:00:29.013Z,100411.70
2023-04-02T08:02:59.882Z,100418.20
2023-04-02T08:05:31.406Z,100420.89
2023-04-02T08:08:01.683Z,100419.38
2023-04-02T08:10:31.130Z,100417.26
2023-04-02T08:13:00.506Z,100418.16
2023-04-02T08:15:29.911Z,100423.45
2023-04-02T08:17:59.525Z,100421.80
2023-04-02T08:20:29.340Z,100428.50
2023-04-02T08:22:58.737Z,100433.20
2023-04-02T08:25:28.368Z,100437.79
2023-04-02T08:27:58.346Z,100443.66
2023-04-02T08:30:27.696Z,100453.13
2023-04-02T08:32:57.222Z,100452.84
2023-04-02T08:35:26.797Z,100459.38
2023-04-02T08:37:57.426Z,100466.23
2023-04-02T08:40:27.832Z,100467.67
2023-04-02T08:44:04.270Z,100470.41
2023-04-02T08:46:49.556Z,100481.38
2023-04-02T08:49:32.237Z,100484.88
2023-04-02T08:52:01.828Z,100487.41
2023-04-02T08:54:43.805Z,100489.70
2023-04-02T08:57:47.883Z,100492.55
2023-04-02T09:00:41.004Z,100497.52
2023-04-02T09:03:40.734Z,100499.69
2023-04-02T09:06:16.793Z,100501.98
2023-04-02T09:08:50.295Z,100506.30
2023-04-02T09:11:54.061Z,100508.33
2023-04-02T09:14:47.448Z,100511.48
2023-04-02T09:17:25.299Z,100512.20
2023-04-02T09:20:18.123Z,100511.04
2023-04-02T09:22:51.467Z,100510.77
2023-04-02T09:25:24.027Z,100515.46
2023-04-02T09:27:56.371Z,100519.33
2023-04-02T09:30:33.565Z,100517.51
2023-04-02T09:33:09.306Z,100520.70
2023-04-02T09:35:58.038Z,100525.24
2023-04-02T09:38:31.763Z,100526.52
2023-04-02T09:41:07.620Z,100527.25
2023-04-02T09:43:39.555Z,100538.65
2023-04-02T09:46:26.120Z,100539.46
2023-04-02T09:49:01.235Z,100543.36
2023-04-02T09:51:34.882Z,100546.08
2023-04-02T09:54:04.162Z,100543.02
2023-04-02T09:56:38.869Z,100543.23
2023-04-02T09:59:23.030Z,100541.60
2023-04-02T10:01:55.596Z,100540.44
2023-04-02T10:04:45.485Z,100541.97
2023-04-02T10:07:44.115Z,100546.98
2023-04-02T10:10:40.726Z,100557.07
2023-04-02T10:13:31.521Z,100561.33
2023-04-02T10:16:39.889Z,100562.80
2023-04-02T10:19:58.986Z,100565.55
2023-04-02T10:22:29.402Z,100567.44
2023-04-02T10:24:59.710Z,100567.50
2023-04-02T10:28:12.109Z,100576.38
2023-04-02T10:31:11.659Z,100577.04
2023-04-02T10:33:53.422Z,100578.09
2023-04-02T10:37:32.034Z,100581.52
2023-04-02T10:40:48.615Z,100587.09
2023-04-02T10:43:53.757Z,100590.29
2023-04-02T10:47:10.401Z,100585.81
2023-04-02T10:50:26.380Z,100589.05
2023-04-02T10:53:23.905Z,100590.48
2023-04-02T10:56:03.694Z,100590.16
2023-04-02T10:58:40.383Z,100593.20
2023-04-02T11:01:18.928Z,100593.36
2023-04-02T11:03:58.027Z,100595.24
2023-04-02T11:06:38.489Z,100595.16
2023-04-02T11:09:18.790Z,100597.61
2023-04-02T11:11:53.277Z,100599.96
2023-04-02T11:14:31.983Z,100604.87
2023-04-02T11:17:04.957Z,100604.49
2023-04-02T11:19:36.611Z,100604.89
2023-04-02T11:22:25.801Z,100609.34
2023-04-02T11:24:57.384Z,100612.54
2023-04-02T11:27:30.984Z,100617.61
2023-04-02T11:30:26.481Z,100616.66
2023-04-02T11:34:06.846Z,100618.28
2023-04-02T11:36:54.488Z,100619.99
2023-04-02T11:40:02.589Z,100613.71
2023-04-02T11:42:38.314Z,100617.64
2023-04-02T11:45:29.116Z,100617.59
2023-04-02T11:48:27.229Z,100623.83
2023-04-02T11:50:58.358Z,100624.44
2023-04-02T11:53:38.297Z,100629.00
2023-04-02T11:56:25.347Z,100632.66
2023-04-02T11:59:28.157Z,100632.68
2023-04-02T12:02:22.727Z,100632.84
2023-04-02T12:05:16.604Z,100631.48
2023-04-02T12:08:57.861Z,100635.89
2023-04-02T12:11:56.161Z,100633.05
2023-04-02T12:14:47.358Z,100632.96
2023-04-02T12:17:29.088Z,100631.59
2023-04-02T12:20:22.829Z,100632.24
2023-04-02T12:22:57.338Z,100636.07
2023-04-02T12:25:40.943Z,100635.63
2023-04-02T12:28:10.900Z,100629.17
2023-04-02T12:30:42.093Z,100632.31
2023-04-02T12:33:21.087Z,100630.91
2023-04-02T12:35:58.215Z,100632.62
2023-04-02T12:38:30.399Z,100634.13
2023-04-02T12:41:06.486Z,100631.14
2023-04-02T12:43:38.133Z,100626.90
2023-04-02T12:46:13.799Z,100628.26
2023-04-02T12:48:43.512Z,100628.35
2023-04-02T12:51:13.703Z,100629.23
2023-04-02T12:53:50.733Z,100632.46
2023-04-02T12:56:23.996Z,100632.27
2023-04-02T12:59:02.462Z,100634.29
2023-04-02T13:01:34.021Z,100636.16
2023-04-02T13:04:12.782Z,100633.88
2023-04-02T13:06:57.495Z,100632.27
2023-04-02T13:09:45.392Z,100633.69
2023-04-02T13:12:32.693Z,100626.34
2023-04-02T13:15:31.919Z,100628.48
2023-04-02T13:18:13.925Z,100625.38
2023-04-02T13:20:54.912Z,100620.70
2023-04-02T13:23:37.848Z,100616.52
2023-04-02T13:26:26.775Z,100610.30
2023-04-02T13:29:03.386Z,100606.99
2023-04-02T13:31:36.428Z,100607.67
2023-04-02T13:34:09.987Z,100608.95
2023-04-02T13:36:40.548Z,100607.44
2023-04-02T13:39:11.959Z,100602.47
2023-04-02T13:41:59.710Z,100604.13
2023-04-02T13:44:37.800Z,100606.64
2023-04-02T13:47:33.465Z,100611.33
2023-04-02T13:50:06.987Z,100611.20
2023-04-02T13:52:59.540Z,100606.51
2023-04-02T13:55:54.823Z,100608.11
2023-04-02T13:58:36.665Z,100606.44
2023-04-02T14:01:07.436Z,100604.23
2023-04-02T14:03:41.490Z,100600.05
2023-04-02T14:06:31.441Z,100598.05
2023-04-02T14:09:40.366Z,100600.50
2023-04-02T14:12:54.915Z,100600.85
2023-04-02T14:16:07.476Z,100598.36
2023-04-02T14:19:36.591Z,100596.35
2023-04-02T14:22:37.057Z,100590.64
2023-04-02T14:25:22.187Z,100588.84
2023-04-02T14:28:14.697Z,100585.77
2023-04-02T14:31:03.847Z,100585.05
2023-04-02T14:33:52.476Z,100583.89
2023-04-02T14:36:50.455Z,100576.80
2023-04-02T14:40:14.978Z,100571.97
2023-04-02T14:43:34.950Z,100575.71
2023-04-02T14:46:32.608Z,100578.95
2023-04-02T14:49:45.014Z,100580.34
2023-04-02T14:52:21.963Z,100577.05
2023-04-02T14:55:05.513Z,100579.52
2023-04-02T14:57:52.155Z,100582.52
2023-04-02T15:00:31.173Z,100588.80
2023-04-02T15:03:34.008Z,100591.90
2023-04-02T15:06:16.967Z,100593.27
2023-04-02T15:09:09.738Z,100587.04
2023-04-02T15:11:51.324Z,100590.09
2023-04-02T15:14:46.105Z,100592.97
2023-04-02T15:17:16.194Z,100590.54
2023-04-02T15:19:47.669Z,100595.55
2023-04-02T15:22:37.655Z,100596.13
2023-04-02T15:25:24.132Z,100602.81
2023-04-02T15:28:29.317Z,100608.02
2023-04-02T15:31:03.890Z,100611.63
2023-04-02T15:33:52.751Z,100612.70
2023-04-02T15:36:49.009Z,100615.15
2023-04-02T15:39:58.290Z,100618.15
2023-04-02T15:42:44.579Z,100621.77
2023-04-02T15:45:46.254Z,100618.79
2023-04-02T15:48:58.980Z,100622.40
2023-04-02T15:52:12.982Z,100621.20
2023-04-02T15:54:59.990Z,100617.22
2023-04-02T15:57:51.573Z,100615.73
2023-04-02T16:00:22.621Z,100617.31
2023-04-02T16:03:23.795Z,100618.71
2023-04-02T16:06:20.914Z,100619.69
2023-04-02T16:09:16.735Z,100617.89
2023-04-02T16:11:46.199Z,100619.83
2023-04-02T16:14:27.420Z,100620.80
2023-04-02T16:17:17.699Z,100620.42
2023-04-02T16:20:09.082Z,100626.20
2023-04-02T16:22:53.317Z,100629.05
2023-04-02T16:25:41.431Z,100631.34
2023-04-02T16:29:10.594Z,100636.87
2023-04-02T16:31:52.774Z,100643.23
2023-04-02T16:35:18.681Z,100643.05
2023-04-02T16:38:03.015Z,100642.48
2023-04-02T16:40:42.240Z,100645.42
2023-04-02T16:43:14.763Z,100646.38
2023-04-02T16:45:56.284Z,100645.44
2023-04-02T16:48:51.128Z,100640.23
2023-04-02T16:51:39.709Z,100647.43
2023-04-02T16:54:29.344Z,100652.38
2023-04-02T16:57:39.310Z,100659.16
2023-04-02T17:00:49.724Z,100660.77
2023-04-02T17:03:53.895Z,100664.29
2023-04-02T17:06:42.390Z,100669.27
2023-04-02T17:09:19.824Z,100670.52
2023-04-02T17:12:20.146Z,100668.97
2023-04-02T17:15:03.247Z,100672.65
2023-04-02T17:17:33.356Z,100672.70
2023-04-02T17:20:10.589Z,100674.80
2023-04-02T17:22:42.129Z,100682.52
2023-04-02T17:25:22.065Z,100684.02
2023-04-02T17:27:55.880Z,100678.17
2023-04-02T17:30:38.638Z,100676.66
2023-04-02T17:33:18.399Z,100682.92
2023-04-02T17:36:00.603Z,100688.58
2023-04-02T17:39:24.237Z,100697.45
2023-04-02T17:42:17.008Z,100695.61
2023-04-02T17:44:59.585Z,100693.27
2023-04-02T17:48:12.950Z,100690.38
2023-04-02T17:51:02.686Z,100693.08
2023-04-02T17:53:52.467Z,100697.07
2023-04-02T17:56:53.190Z,100700.22
2023-04-02T17:59:37.494Z,100704.21
2023-04-02T18:02:52.582Z,100702.88
2023-04-02T18:05:34.263Z,100708.95
2023-04-02T18:08:03.875Z,100711.89
2023-04-02T18:10:46.733Z,100714.95
2023-04-02T18:13:40.565Z,100716.71
2023-04-02T18:16:55.317Z,100716.11
2023-04-02T18:19:47.835Z,100720.91
2023-04-02T18:22:57.065Z,100720.95
2023-04-02T18:26:27.941Z,100731.20
2023-04-02T18:29:37.416Z,100736.31
2023-04-02T18:32:37.460Z,100739.98
2023-04-02T18:35:32.657Z,100742.89
2023-04-02T18:38:47.844Z,100737.83
2023-04-02T18:42:03.386Z,100737.46
2023-04-02T18:45:31.824Z,100745.66
2023-04-02T18:48:19.561Z,100748.64
2023-04-02T18:50:49.840Z,100752.99
2023-04-02T18:53:29.736Z,100753.35
2023-04-02T18:56:32.050Z,100754.36
2023-04-02T18:59:12.317Z,100754.06
2023-04-02T19:01:51.486Z,100761.23
2023-04-02T19:05:14.975Z,100763.32
2023-04-02T19:08:03.850Z,100767.34
2023-04-02T19:11:29.808Z,100769.94
2023-04-02T19:17:44.904Z,100786.98
2023-04-02T19:20:39.122Z,100789.64
2023-04-02T19:28:12.301Z,100791.32
2023-04-02T19:31:59.878Z,100786.04
2023-04-02T19:38:46.417Z,100786.30
2023-04-02T19:54:00.210Z,100793.25
2023-04-02T19:57:30.233Z,100787.42
2023-04-02T20:01:02.427Z,100790.34
2023-04-02T20:03:38.558Z,100784.40
2023-04-02T20:06:25.768Z,100782.23
2023-04-02T20:09:23.316Z,100780.50
2023-04-02T20:13:30.045Z,100778.70
2023-04-02T20:20:40.955Z,100757.08
2023-04-02T20:24:58.782Z,100764.21
2023-04-02T20:30:38.017Z,100758.34
2023-04-02T20:34:11.227Z,100753.07
2023-04-02T20:36:42.564Z,100749.60
2023-04-02T20:39:19.920Z,100750.52
2023-04-02T20:41:50.198Z,100746.96
2023-04-02T20:44:30.777Z,100743.73
2023-04-02T20:47:03.185Z,100742.05
2023-04-02T20:49:36.652Z,100736.17
2023-04-02T20:52:08.808Z,100735.54
2023-04-02T20:54:41.821Z,100730.73
2023-04-02T20:57:13.968Z,100726.09
2023-04-02T20:59:46.607Z,100727.05
2023-04-02T21:02:53.834Z,100728.23
2023-04-02T21:05:23.883Z,100733.54
2023-04-02T21:07:55.589Z,100736.38
2023-04-02T21:10:28.584Z,100734.29
2023-04-02T21:13:00.820Z,100735.25
2023-04-02T21:15:31.295Z,100737.23
2023-04-02T21:18:02.797Z,100742.34
2023-04-02T21:20:52.133Z,100745.77
2023-04-02T21:23:41.589Z,100755.02
2023-04-02T21:30:52.721Z,100754.79
2023-04-02T21:34:43.248Z,100760.06
2023-04-02T21:37:15.069Z,100764.00
2023-04-02T21:40:26.462Z,100775.56
2023-04-02T21:43:24.340Z,100784.45
2023-04-02T21:45:59.986Z,100795.73
2023-04-02T21:48:34.396Z,100796.99
2023-04-02T21:54:56.500Z,100801.56
2023-04-02T21:57:48.182Z,100803.23
2023-04-02T22:00:39.240Z,100798.83
2023-04-02T22:03:21.498Z,100801.73
2023-04-02T22:06:14.345Z,100802.88
2023-04-02T22:09:07.600Z,100805.77
2023-04-02T22:12:08.625Z,100802.00
2023-04-02T22:14:39.785Z,100806.00
2023-04-02T22:17:26.307Z,100805.08
2023-04-02T22:19:56.660Z,100809.14
2023-04-02T22:22:30.432Z,100805.27
2023-04-02T22:25:03.222Z,100804.61
2023-04-02T22:27:34.795Z,100809.05
2023-04-02T22:30:11.607Z,100807.15
2023-04-02T22:41:52.610Z,100814.23
2023-04-02T22:44:43.286Z,100810.06
2023-04-02T22:47:53.837Z,100813.55
2023-04-02T22:50:38.173Z,100814.08
2023-04-02T22:53:23.398Z,100811.59
2023-04-02T22:56:14.192Z,100816.48
2023-04-02T22:58:45.546Z,100818.19
2023-04-02T23:01:23.665Z,100818.58
2023-04-02T23:03:55.394Z,100812.19
2023-04-02T23:06:26.649Z,100812.10
2023-04-02T23:08:59.646Z,100812.67
2023-04-02T23:11:29.974Z,100813.48
2023-04-02T23:14:00.615Z,100818.86
2023-04-02T23:16:31.680Z,100821.77
2023-04-02T23:19:04.756Z,100820.93
2023-04-02T23:21:35.278Z,100820.14
2023-04-02T23:24:07.780Z,100825.49
2023-04-02T23:26:41.589Z,100824.70
2023-04-02T23:29:30.589Z,100825.08
2023-04-02T23:32:06.351Z,100830.23
2023-04-02T23:34:36.266Z,100828.58
2023-04-02T23:37:09.241Z,100824.55
2023-04-02T23:39:41.504Z,100826.63
2023-04-02T23:42:12.581Z,100824.38
2023-04-02T23:44:42.407Z,100819.92
2023-04-02T23:47:12.038Z,100819.23
2023-04-02T23:49:47.748Z,100824.62
2023-04-02T23:52:17.532Z,100831.52
2023-04-02T23:54:47.849Z,100829.05
2023-04-02T23:57:18.449Z,100823.59
2023-04-02T23:59:49.324Z,100820.42
